Time;durP1;ratioP1;P1;durP2;ratioP2;P2;SDS_P1;SDS_P2;PMS_P1;PMS_P2;Temp;Humidity;BMP_temperature;BMP_pressure;BME280_temperature;BME280_humidity;BME280_pressure;Samples;Min_cycle;Max_cycle;Signal;HPM_P1;HPM_P2
2021/09/03 00:01:38;;;;;;;5.25;4.60;;;21.40;64.10;;;;;;5094927;28;20205;-68
2021/09/03 00:04:04;;;;;;;4.82;4.38;;;21.50;64.20;;;;;;5095943;28;20222;-67
2021/09/03 00:06:29;;;;;;;6.05;5.45;;;21.50;64.20;;;;;;5095344;28;20226;-66
2021/09/03 00:08:55;;;;;;;6.13;5.05;;;21.50;64.20;;;;;;5094863;28;20537;-66
2021/09/03 00:11:20;;;;;;;5.57;5.07;;;21.50;64.20;;;;;;5095471;28;20185;-66
2021/09/03 00:13:46;;;;;;;5.03;4.60;;;21.50;64.20;;;;;;5095717;28;20178;-66
2021/09/03 00:16:11;;;;;;;6.55;5.72;;;21.50;64.20;;;;;;5094950;28;20177;-66
2021/09/03 00:18:37;;;;;;;6.53;5.40;;;21.40;64.20;;;;;;5095226;28;20181;-66
2021/09/03 00:21:02;;;;;;;5.40;5.00;;;21.50;64.20;;;;;;5111032;28;20249;-66
2021/09/03 00:23:28;;;;;;;6.30;4.80;;;21.40;64.20;;;;;;5094288;28;20173;-66
2021/09/03 00:25:53;;;;;;;5.82;5.22;;;21.40;64.20;;;;;;5095412;28;20564;-67
2021/09/03 00:28:19;;;;;;;5.40;5.00;;;21.40;64.20;;;;;;5095438;28;20162;-66
2021/09/03 00:30:44;;;;;;;5.10;4.65;;;21.40;65.00;;;;;;5094727;28;20176;-66
2021/09/03 00:33:10;;;;;;;5.32;4.82;;;21.40;64.20;;;;;;5095191;28;20193;-66
2021/09/03 00:35:35;;;;;;;6.13;5.18;;;21.40;64.20;;;;;;5094180;28;20624;-67
2021/09/03 00:38:01;;;;;;;5.70;5.07;;;21.40;64.20;;;;;;5095092;28;20170;-67
2021/09/03 00:40:26;;;;;;;5.70;5.15;;;21.40;64.20;;;;;;5095001;28;20239;-66
2021/09/03 00:42:52;;;;;;;5.05;4.55;;;21.40;64.20;;;;;;5093956;28;20605;-67
2021/09/03 00:45:17;;;;;;;6.40;5.03;;;21.40;64.20;;;;;;5094814;28;20209;-66
2021/09/03 00:47:43;;;;;;;6.20;5.05;;;21.40;64.20;;;;;;5094852;28;20180;-67
2021/09/03 00:50:09;;;;;;;5.68;5.13;;;21.40;64.20;;;;;;5094337;28;20170;-67
2021/09/03 00:52:35;;;;;;;6.03;5.47;;;21.40;64.20;;;;;;5094517;28;20226;-67
2021/09/03 00:55:00;;;;;;;6.18;5.63;;;21.40;64.20;;;;;;5110724;28;20178;-67
2021/09/03 00:57:26;;;;;;;5.90;5.32;;;21.40;64.20;;;;;;5109458;28;20185;-66
2021/09/03 00:59:53;;;;;;;6.30;5.20;;;21.40;64.20;;;;;;5094735;28;20671;-67
2021/09/03 01:02:20;;;;;;;5.57;5.05;;;21.40;64.20;;;;;;5094739;28;20176;-67
2021/09/03 01:04:46;;;;;;;5.97;5.40;;;21.30;64.10;;;;;;5093814;28;20216;-67
2021/09/03 01:07:11;;;;;;;6.22;5.63;;;21.40;64.20;;;;;;5110242;28;20213;-67
2021/09/03 01:09:37;;;;;;;6.40;5.53;;;21.40;64.20;;;;;;5110228;28;20189;-66
2021/09/03 01:12:03;;;;;;;6.63;5.30;;;21.40;64.30;;;;;;5093766;28;20186;-66
2021/09/03 01:14:31;;;;;;;6.32;5.68;;;21.40;64.20;;;;;;5094209;28;20177;-66
2021/09/03 01:16:56;;;;;;;5.50;5.00;;;21.40;64.20;;;;;;5094441;28;20655;-67
2021/09/03 01:19:22;;;;;;;6.20;5.60;;;21.40;64.20;;;;;;5093292;28;20174;-66
2021/09/03 01:21:49;;;;;;;5.97;5.43;;;21.30;64.10;;;;;;5094343;28;20644;-67
2021/09/03 01:24:14;;;;;;;6.25;5.70;;;21.40;64.20;;;;;;5094398;28;20178;-65
2021/09/03 01:26:40;;;;;;;6.68;5.82;;;21.30;64.10;;;;;;5093377;28;20706;-66
2021/09/03 01:29:05;;;;;;;7.10;5.43;;;21.30;64.20;;;;;;5094306;28;20162;-66
2021/09/03 01:31:31;;;;;;;5.70;5.20;;;21.30;64.10;;;;;;5093830;28;20182;-65
2021/09/03 01:33:57;;;;;;;6.53;5.93;;;21.30;64.20;;;;;;5093459;28;20225;-67
2021/09/03 01:36:29;;;;;;;5.65;5.13;;;21.30;64.10;;;;;;5093625;28;20704;-67
2021/09/03 01:38:55;;;;;;;6.35;5.75;;;21.30;64.10;;;;;;5093441;28;20205;-67
2021/09/03 01:41:21;;;;;;;6.20;5.60;;;21.30;64.20;;;;;;5093846;28;20193;-66
2021/09/03 01:43:46;;;;;;;6.82;6.22;;;21.30;64.10;;;;;;5092787;28;20182;-67
2021/09/03 01:46:12;;;;;;;6.13;5.47;;;21.30;64.20;;;;;;5093221;28;20220;-67
2021/09/03 01:48:37;;;;;;;6.25;5.65;;;21.30;64.20;;;;;;5093437;28;20566;-67
2021/09/03 01:51:03;;;;;;;5.85;5.25;;;21.30;64.20;;;;;;5093969;28;20204;-67
2021/09/03 01:53:28;;;;;;;7.40;6.10;;;21.30;64.20;;;;;;5093020;28;20190;-66
2021/09/03 01:55:54;;;;;;;6.38;5.75;;;21.30;64.20;;;;;;5093195;28;20184;-67
2021/09/03 01:58:19;;;;;;;6.43;5.53;;;21.30;64.20;;;;;;5093501;28;20173;-66
2021/09/03 02:00:45;;;;;;;7.45;5.97;;;21.30;64.20;;;;;;5092770;28;20174;-67
2021/09/03 02:03:11;;;;;;;6.40;5.80;;;21.30;64.20;;;;;;5093453;28;20670;-67
2021/09/03 02:05:36;;;;;;;7.25;5.78;;;21.30;64.20;;;;;;5092926;28;20299;-67
2021/09/03 02:08:02;;;;;;;6.35;5.82;;;21.30;64.30;;;;;;5092910;28;20197;-66
2021/09/03 02:10:27;;;;;;;6.65;6.00;;;21.30;64.20;;;;;;5093306;28;20219;-66
2021/09/03 02:12:53;;;;;;;6.32;5.55;;;21.30;64.20;;;;;;5093392;28;20188;-66
2021/09/03 02:15:19;;;;;;;6.38;5.78;;;21.30;64.20;;;;;;5092702;28;20181;-67
2021/09/03 02:17:44;;;;;;;6.30;5.38;;;21.20;64.10;;;;;;5092990;28;20587;-66
2021/09/03 02:20:10;;;;;;;6.57;5.72;;;21.20;64.20;;;;;;5092992;28;20320;-66
2021/09/03 02:22:35;;;;;;;7.13;6.35;;;21.20;64.20;;;;;;5092267;28;20195;-66
2021/09/03 02:25:01;;;;;;;6.72;5.72;;;21.20;64.10;;;;;;5093223;28;20343;-66
2021/09/03 02:27:26;;;;;;;7.18;6.15;;;21.30;64.30;;;;;;5092874;28;20273;-65
2021/09/03 02:29:52;;;;;;;6.72;5.90;;;21.20;64.20;;;;;;5092389;28;20264;-66
2021/09/03 02:32:20;;;;;;;6.97;6.28;;;21.20;64.20;;;;;;5092989;28;20254;-66
2021/09/03 02:34:46;;;;;;;6.55;5.95;;;21.20;64.20;;;;;;5092941;28;20177;-66
2021/09/03 02:37:11;;;;;;;6.07;5.47;;;21.20;64.20;;;;;;5092427;28;20307;-67
2021/09/03 02:39:37;;;;;;;6.40;5.82;;;21.20;64.20;;;;;;5092517;28;20178;-67
2021/09/03 02:42:02;;;;;;;7.55;6.25;;;21.20;64.20;;;;;;5092885;28;20667;-68
2021/09/03 02:44:28;;;;;;;6.60;6.00;;;21.20;64.10;;;;;;5091834;28;20628;-67
2021/09/03 02:46:53;;;;;;;6.90;6.20;;;21.20;64.20;;;;;;5092797;28;20220;-67
2021/09/03 02:49:19;;;;;;;6.97;6.40;;;21.20;64.10;;;;;;5091968;28;20543;-67
2021/09/03 02:51:44;;;;;;;6.57;5.97;;;21.20;64.20;;;;;;5092775;28;20193;-67
2021/09/03 02:54:10;;;;;;;6.93;5.70;;;21.20;64.10;;;;;;5092845;28;20165;-67
2021/09/03 02:56:35;;;;;;;7.82;6.60;;;21.20;64.20;;;;;;5091603;28;20199;-66
2021/09/03 02:59:01;;;;;;;6.78;6.18;;;21.10;64.10;;;;;;5092637;28;20585;-67
2021/09/03 03:01:26;;;;;;;6.55;5.85;;;21.10;64.10;;;;;;5092284;28;20209;-67
2021/09/03 03:03:52;;;;;;;6.55;5.95;;;21.20;64.20;;;;;;5091592;28;20165;-67
2021/09/03 03:06:17;;;;;;;7.47;6.72;;;21.20;64.20;;;;;;5092382;28;20209;-67
2021/09/03 03:08:43;;;;;;;6.95;6.25;;;21.20;64.10;;;;;;5092133;28;20258;-66
2021/09/03 03:11:08;;;;;;;6.45;5.50;;;21.10;64.10;;;;;;5091594;28;20664;-67
2021/09/03 03:13:34;;;;;;;6.15;5.55;;;21.20;64.20;;;;;;5092149;28;20185;-66
2021/09/03 03:16:00;;;;;;;7.10;6.40;;;21.10;64.10;;;;;;5092366;28;20560;-66
2021/09/03 03:18:25;;;;;;;6.63;5.95;;;21.10;64.10;;;;;;5091331;28;20256;-66
2021/09/03 03:20:51;;;;;;;7.25;6.53;;;21.10;64.10;;;;;;5092244;28;20264;-66
2021/09/03 03:23:16;;;;;;;7.30;6.43;;;21.10;64.10;;;;;;5092469;28;20194;-66
2021/09/03 03:25:42;;;;;;;7.38;6.13;;;21.10;64.10;;;;;;5091486;28;20209;-66
2021/09/03 03:28:08;;;;;;;6.80;5.90;;;21.10;64.10;;;;;;5092484;28;20539;-66
2021/09/03 03:30:33;;;;;;;7.05;6.20;;;21.10;64.10;;;;;;5091894;28;20182;-66
2021/09/03 03:33:00;;;;;;;7.20;6.53;;;21.10;64.20;;;;;;5091422;28;20172;-66
2021/09/03 03:35:25;;;;;;;7.10;6.15;;;21.10;64.10;;;;;;5091738;28;20571;-67
2021/09/03 03:37:51;;;;;;;6.93;6.32;;;21.10;64.10;;;;;;5092272;28;20162;-67
2021/09/03 03:40:17;;;;;;;6.68;6.07;;;21.10;64.10;;;;;;5091557;28;20640;-67
2021/09/03 03:42:42;;;;;;;6.30;5.70;;;21.10;64.10;;;;;;5091686;28;20174;-67
2021/09/03 03:45:08;;;;;;;7.32;5.93;;;21.10;64.10;;;;;;5092141;28;20209;-67
2021/09/03 03:47:34;;;;;;;7.28;6.15;;;21.10;64.10;;;;;;5090962;28;20200;-67
2021/09/03 03:50:00;;;;;;;6.72;6.10;;;21.10;64.20;;;;;;5091845;28;20624;-67
2021/09/03 03:52:25;;;;;;;7.53;6.75;;;21.10;64.10;;;;;;5091891;28;20181;-66
2021/09/03 03:54:51;;;;;;;8.68;6.78;;;21.10;64.20;;;;;;5091313;28;20176;-67
2021/09/03 03:57:16;;;;;;;6.45;5.85;;;21.00;64.10;;;;;;5091848;28;20257;-66
2021/09/03 03:59:42;;;;;;;6.88;6.05;;;21.00;64.10;;;;;;5090954;28;20174;-67
2021/09/03 04:02:07;;;;;;;6.82;6.20;;;21.00;64.10;;;;;;5091747;28;20201;-66
2021/09/03 04:04:33;;;;;;;7.68;6.88;;;21.00;64.10;;;;;;5091549;28;20192;-67
2021/09/03 04:06:59;;;;;;;7.45;6.75;;;21.00;64.10;;;;;;5091262;28;20210;-67
2021/09/03 04:09:24;;;;;;;7.63;6.68;;;21.00;64.10;;;;;;5091562;28;20246;-66
2021/09/03 04:11:50;;;;;;;7.53;6.90;;;21.00;64.10;;;;;;5092025;28;20177;-66
2021/09/03 04:14:16;;;;;;;6.45;5.85;;;21.00;64.10;;;;;;5091052;28;20550;-66
2021/09/03 04:16:42;;;;;;;8.60;6.60;;;21.00;64.10;;;;;;5091352;28;20656;-66
2021/09/03 04:19:07;;;;;;;6.72;6.03;;;21.00;64.10;;;;;;5094036;28;20161;-66
2021/09/03 04:21:33;;;;;;;7.32;6.30;;;21.00;64.00;;;;;;5094797;28;20275;-66
2021/09/03 04:24:01;;;;;;;8.32;6.38;;;21.00;64.10;;;;;;5095527;28;20604;-66
2021/09/03 04:26:26;;;;;;;7.53;6.82;;;21.00;64.10;;;;;;5094991;28;20300;-65
2021/09/03 04:28:52;;;;;;;7.75;6.95;;;21.00;64.10;;;;;;5094594;28;20265;-66
2021/09/03 04:31:17;;;;;;;7.32;6.63;;;21.00;64.10;;;;;;5095251;28;20536;-65
2021/09/03 04:33:43;;;;;;;7.68;6.82;;;21.00;64.10;;;;;;5094696;28;20224;-66
2021/09/03 04:36:08;;;;;;;7.10;6.40;;;21.00;64.10;;;;;;5094577;28;20170;-66
2021/09/03 04:38:34;;;;;;;7.65;6.90;;;21.00;64.10;;;;;;5095047;28;20177;-66
2021/09/03 04:40:59;;;;;;;7.32;6.63;;;21.00;64.10;;;;;;5094972;28;20223;-67
2021/09/03 04:43:25;;;;;;;7.22;6.47;;;21.00;64.10;;;;;;5093891;28;20496;-66
2021/09/03 04:45:50;;;;;;;8.02;7.22;;;21.00;64.10;;;;;;5094889;28;20193;-67
2021/09/03 04:48:16;;;;;;;8.05;7.03;;;21.00;64.10;;;;;;5095095;28;20254;-67
2021/09/03 04:50:41;;;;;;;7.57;6.88;;;21.00;64.10;;;;;;5094030;28;20174;-66
2021/09/03 04:53:07;;;;;;;7.45;6.75;;;21.00;64.20;;;;;;5095000;28;20253;-67
2021/09/03 04:55:33;;;;;;;7.20;6.60;;;21.00;64.10;;;;;;5094622;28;20251;-66
2021/09/03 04:57:58;;;;;;;6.97;6.38;;;20.90;64.00;;;;;;5094028;28;20170;-67
2021/09/03 05:00:24;;;;;;;7.80;7.00;;;20.90;64.00;;;;;;5094103;28;20541;-66
2021/09/03 05:02:49;;;;;;;7.38;6.68;;;20.90;64.00;;;;;;5094653;28;20206;-67
2021/09/03 05:05:15;;;;;;;8.25;6.85;;;20.90;64.00;;;;;;5094252;28;20686;-66
2021/09/03 05:07:40;;;;;;;6.78;6.13;;;20.90;64.00;;;;;;5094431;28;20173;-66
2021/09/03 05:10:08;;;;;;;8.02;7.25;;;20.90;64.10;;;;;;5093930;28;20177;-67
2021/09/03 05:12:34;;;;;;;7.65;6.85;;;20.90;64.00;;;;;;5094289;28;20178;-67
2021/09/03 05:15:00;;;;;;;7.28;6.57;;;20.90;64.90;;;;;;5094415;28;20173;-67
2021/09/03 05:17:26;;;;;;;8.32;7.63;;;20.90;64.00;;;;;;5092218;28;20177;-66
2021/09/03 05:19:51;;;;;;;7.63;6.80;;;20.90;64.00;;;;;;5094282;28;20679;-66
2021/09/03 05:22:17;;;;;;;8.13;6.82;;;20.90;64.10;;;;;;5094364;28;20177;-67
2021/09/03 05:24:42;;;;;;;8.20;7.35;;;20.90;64.00;;;;;;5093194;28;20174;-66
2021/09/03 05:27:08;;;;;;;7.10;6.40;;;20.90;64.00;;;;;;5094158;28;20572;-66
2021/09/03 05:29:33;;;;;;;7.93;6.95;;;20.90;64.00;;;;;;5093678;28;20268;-66
2021/09/03 05:31:59;;;;;;;7.65;6.93;;;20.90;64.00;;;;;;5093737;28;20180;-66
2021/09/03 05:34:24;;;;;;;7.70;6.90;;;20.90;64.00;;;;;;5093912;28;20165;-66
2021/09/03 05:36:50;;;;;;;7.75;7.05;;;20.90;64.10;;;;;;5094092;28;20529;-67
2021/09/03 05:39:15;;;;;;;7.50;6.80;;;20.90;64.00;;;;;;5093310;28;20193;-67
2021/09/03 05:41:41;;;;;;;8.75;7.60;;;20.90;64.00;;;;;;5093658;28;20620;-67
2021/09/03 05:44:06;;;;;;;6.88;6.28;;;20.90;63.90;;;;;;5093810;28;20177;-67
2021/09/03 05:46:32;;;;;;;8.02;7.10;;;20.90;63.90;;;;;;5092887;28;20292;-67
2021/09/03 05:48:57;;;;;;;7.30;6.60;;;20.90;64.00;;;;;;5094024;28;20165;-67
2021/09/03 05:51:23;;;;;;;8.52;7.63;;;20.90;63.90;;;;;;5093333;28;20186;-65
2021/09/03 05:53:48;;;;;;;8.48;7.18;;;20.90;63.90;;;;;;5093054;28;20644;-66
2021/09/03 05:56:14;;;;;;;8.07;7.38;;;20.90;63.90;;;;;;5094047;28;20177;-66
2021/09/03 05:58:39;;;;;;;7.20;6.60;;;20.90;64.00;;;;;;5093144;28;20174;-66
2021/09/03 06:01:05;;;;;;;7.97;7.18;;;20.90;63.90;;;;;;5093116;28;20705;-66
2021/09/03 06:03:30;;;;;;;8.02;7.05;;;20.90;63.90;;;;;;5093231;28;20652;-66
2021/09/03 06:05:56;;;;;;;8.40;7.63;;;21.00;64.00;;;;;;5093380;28;20209;-66
2021/09/03 06:08:21;;;;;;;7.65;6.68;;;21.00;64.00;;;;;;5092509;28;20227;-66
2021/09/03 06:10:47;;;;;;;7.68;6.88;;;21.00;64.00;;;;;;5093243;28;20236;-65
2021/09/03 06:13:12;;;;;;;8.00;7.18;;;20.90;63.80;;;;;;5092530;28;20174;-65
2021/09/03 06:15:38;;;;;;;7.55;6.82;;;21.00;64.00;;;;;;5093214;28;20193;-66
2021/09/03 06:18:03;;;;;;;7.40;6.70;;;21.00;63.90;;;;;;5093158;28;20247;-65
2021/09/03 06:20:29;;;;;;;7.20;6.50;;;21.00;63.90;;;;;;5091823;28;20228;-66
2021/09/03 06:22:55;;;;;;;7.30;6.60;;;21.00;63.90;;;;;;5093265;28;20182;-66
2021/09/03 06:25:20;;;;;;;11.55;7.18;;;21.00;63.80;;;;;;5092885;28;20221;-65
2021/09/03 06:27:47;;;;;;;7.30;6.60;;;21.00;63.90;;;;;;5092268;28;20202;-66
2021/09/03 06:30:12;;;;;;;7.22;6.53;;;21.00;63.80;;;;;;5093234;28;20172;-66
2021/09/03 06:32:38;;;;;;;7.35;6.63;;;21.00;63.80;;;;;;5092848;28;20173;-65
2021/09/03 06:35:04;;;;;;;7.75;6.95;;;21.00;64.20;;;;;;5092325;28;20205;-67
2021/09/03 06:37:30;;;;;;;6.82;6.22;;;21.00;63.70;;;;;;5092694;28;20552;-66
2021/09/03 06:39:55;;;;;;;8.10;6.40;;;21.00;63.70;;;;;;5092837;28;20608;-67
2021/09/03 06:42:21;;;;;;;7.22;6.53;;;21.00;63.70;;;;;;5091409;28;20230;-66
2021/09/03 06:44:47;;;;;;;7.15;6.45;;;21.10;63.70;;;;;;5092743;28;20230;-66
2021/09/03 06:47:13;;;;;;;7.40;6.40;;;21.10;63.70;;;;;;5092727;28;20226;-67
2021/09/03 06:49:39;;;;;;;8.20;7.03;;;21.10;63.70;;;;;;5091701;28;20177;-66
2021/09/03 06:52:05;;;;;;;7.68;6.22;;;21.10;63.60;;;;;;5092503;28;20182;-68
2021/09/03 06:54:31;;;;;;;7.55;6.85;;;21.10;63.50;;;;;;5092463;28;20181;-65
2021/09/03 06:57:00;;;;;;;8.02;7.25;;;21.10;63.50;;;;;;5091956;28;20253;-65
2021/09/03 06:59:25;;;;;;;7.43;6.82;;;21.20;63.60;;;;;;5092331;28;20386;-66
2021/09/03 07:01:51;;;;;;;7.55;6.75;;;21.20;63.50;;;;;;5092586;28;20255;-67
2021/09/03 07:04:16;;;;;;;8.60;7.30;;;21.20;63.50;;;;;;5091921;28;20182;-66
2021/09/03 07:06:42;;;;;;;7.25;6.32;;;21.20;63.50;;;;;;5092414;28;20205;-66
2021/09/03 07:09:07;;;;;;;7.43;6.50;;;21.30;63.50;;;;;;5092487;28;20173;-66
2021/09/03 07:11:33;;;;;;;8.77;6.90;;;21.30;63.50;;;;;;5091241;28;20177;-66
2021/09/03 07:13:59;;;;;;;8.15;7.10;;;21.30;63.50;;;;;;5092589;28;20506;-65
2021/09/03 07:16:25;;;;;;;12.65;7.22;;;21.30;63.50;;;;;;5092290;28;20181;-66
2021/09/03 07:18:51;;;;;;;7.90;7.10;;;21.30;63.50;;;;;;5091740;28;20165;-65
2021/09/03 07:21:16;;;;;;;7.55;6.80;;;21.30;63.50;;;;;;5092059;28;20229;-65
2021/09/03 07:23:42;;;;;;;7.60;6.78;;;21.30;63.40;;;;;;5091083;28;20537;-66
2021/09/03 07:26:07;;;;;;;7.68;6.75;;;21.30;63.40;;;;;;5092101;28;20209;-65
2021/09/03 07:28:33;;;;;;;9.13;7.05;;;21.30;63.40;;;;;;5091756;28;20174;-67
2021/09/03 07:30:58;;;;;;;9.25;7.22;;;21.40;63.50;;;;;;5091437;28;20178;-62
2021/09/03 07:33:24;;;;;;;8.90;7.28;;;21.40;63.60;;;;;;5092027;28;20173;-64
2021/09/03 07:35:49;;;;;;;8.88;7.00;;;21.50;63.50;;;;;;5092329;28;20169;-65
2021/09/03 07:38:15;;;;;;;7.90;6.88;;;21.50;63.30;;;;;;5091265;28;20239;-66
2021/09/03 07:40:41;;;;;;;7.38;6.68;;;21.50;63.20;;;;;;5091724;28;20182;-65
2021/09/03 07:43:07;;;;;;;8.93;7.15;;;21.60;63.20;;;;;;5092031;28;20528;-66
2021/09/03 07:45:37;;;;;;;7.45;6.70;;;21.60;63.20;;;;;;5091187;28;20204;-65
2021/09/03 07:48:02;;;;;;;8.48;7.07;;;21.60;63.30;;;;;;5092107;28;20202;-66
2021/09/03 07:50:28;;;;;;;7.70;6.88;;;21.60;63.30;;;;;;5090899;28;20217;-65
2021/09/03 07:52:53;;;;;;;8.25;7.07;;;21.60;63.30;;;;;;5091156;28;20595;-66
2021/09/03 07:55:19;;;;;;;8.30;7.43;;;21.60;63.40;;;;;;5095834;28;20173;-65
2021/09/03 07:57:44;;;;;;;9.45;6.65;;;21.60;63.40;;;;;;5096043;28;20542;-66
2021/09/03 08:00:10;;;;;;;7.38;6.45;;;21.60;63.40;;;;;;5095135;28;20170;-66
2021/09/03 08:02:36;;;;;;;9.13;7.25;;;21.60;63.30;;;;;;5095553;28;20629;-66
2021/09/03 08:05:02;;;;;;;6.68;5.97;;;21.60;63.40;;;;;;5095868;28;20178;-66
2021/09/03 08:07:29;;;;;;;6.65;6.00;;;21.60;63.30;;;;;;5094759;28;20641;-66
2021/09/03 08:09:55;;;;;;;7.68;6.75;;;21.70;63.40;;;;;;5095599;28;20303;-65
2021/09/03 08:12:21;;;;;;;7.57;6.78;;;21.70;63.40;;;;;;5095265;28;20170;-65
2021/09/03 08:14:47;;;;;;;8.88;7.88;;;21.70;63.50;;;;;;5094734;28;20632;-65
2021/09/03 08:17:12;;;;;;;7.85;7.05;;;21.70;63.40;;;;;;5095598;28;20174;-66
2021/09/03 08:19:38;;;;;;;7.10;6.40;;;21.70;63.40;;;;;;5094999;28;20217;-67
2021/09/03 08:22:04;;;;;;;7.40;6.68;;;21.80;63.50;;;;;;5094886;28;20181;-67
2021/09/03 08:24:29;;;;;;;7.90;6.68;;;21.80;63.30;;;;;;5094946;28;20543;-65
2021/09/03 08:26:55;;;;;;;8.00;6.88;;;21.80;63.40;;;;;;5094526;28;20235;-66
2021/09/03 08:29:21;;;;;;;10.45;7.15;;;21.80;63.40;;;;;;5094889;28;20177;-59
2021/09/03 08:31:46;;;;;;;7.88;6.30;;;21.90;63.40;;;;;;5095582;28;20215;-60
2021/09/03 08:34:12;;;;;;;7.38;5.75;;;21.90;63.40;;;;;;5094533;28;20659;-59
2021/09/03 08:36:37;;;;;;;9.05;6.65;;;21.90;63.40;;;;;;5094871;28;20186;-60
2021/09/03 08:39:03;;;;;;;8.27;6.78;;;22.00;63.50;;;;;;5095072;28;20165;-60
2021/09/03 08:41:29;;;;;;;8.75;6.60;;;21.90;63.50;;;;;;5094055;28;20232;-59
2021/09/03 08:43:57;;;;;;;6.60;5.70;;;22.00;63.60;;;;;;5093978;28;20250;-59
2021/09/03 08:46:24;;;;;;;9.40;6.35;;;22.00;63.60;;;;;;5094675;28;20213;-59
2021/09/03 08:48:49;;;;;;;7.20;6.50;;;22.10;63.60;;;;;;5094381;28;20170;-59
2021/09/03 08:51:15;;;;;;;6.53;5.90;;;22.10;63.60;;;;;;5110804;28;20188;-59
2021/09/03 08:53:40;;;;;;;7.03;6.20;;;22.10;63.70;;;;;;5093921;28;20659;-59
2021/09/03 08:56:05;;;;;;;7.85;6.28;;;22.10;63.70;;;;;;5093657;28;20178;-59
2021/09/03 08:58:31;;;;;;;7.78;6.40;;;22.10;64.50;;;;;;5094432;28;20166;-60
2021/09/03 09:01:05;;;;;;;6.90;6.05;;;22.20;63.70;;;;;;5094479;28;20177;-60
2021/09/03 09:03:37;;;;;;;6.72;6.03;;;22.20;63.80;;;;;;5093647;28;20181;-59
2021/09/03 09:06:03;;;;;;;6.80;6.20;;;22.20;63.80;;;;;;5094355;28;20217;-59
2021/09/03 09:08:29;;;;;;;7.50;6.20;;;22.20;63.80;;;;;;5094200;28;20623;-59
2021/09/03 09:10:59;;;;;;;7.30;6.10;;;22.20;63.90;;;;;;5093822;28;20711;-60
2021/09/03 09:13:30;;;;;;;10.85;6.28;;;22.30;63.90;;;;;;5099177;28;20192;-59
2021/09/03 09:15:57;;;;;;;6.45;5.80;;;22.30;63.80;;;;;;5097629;28;20169;-60
2021/09/03 09:18:33;;;;;;;6.38;5.78;;;22.30;63.80;;;;;;5113200;28;20181;-59
2021/09/03 09:21:28;;;;;;;7.80;6.07;;;22.30;63.80;;;;;;5108384;27;20217;-59
2021/09/03 09:23:58;;;;;;;6.80;6.13;;;22.30;63.90;;;;;;5093168;28;20214;-60
2021/09/03 09:26:41;;;;;;;6.13;5.53;;;22.30;63.80;;;;;;5094072;28;20217;-60
2021/09/03 09:29:14;;;;;;;6.72;5.80;;;22.40;63.90;;;;;;5096663;28;20564;-59
2021/09/03 09:31:40;;;;;;;5.82;5.25;;;22.30;63.70;;;;;;5113787;28;20207;-60
2021/09/03 09:34:22;;;;;;;6.45;5.85;;;22.40;63.80;;;;;;5114397;28;20642;-60
2021/09/03 09:36:51;;;;;;;7.78;5.68;;;22.40;63.70;;;;;;5073902;28;20307;-60
2021/09/03 09:39:16;;;;;;;8.38;6.45;;;22.40;63.80;;;;;;5072957;28;20786;-59
2021/09/03 09:41:44;;;;;;;5.65;5.15;;;22.40;63.70;;;;;;5073658;28;20282;-60
2021/09/03 09:44:09;;;;;;;5.05;4.60;;;22.50;63.70;;;;;;5073660;28;20188;-60
2021/09/03 09:46:35;;;;;;;7.20;6.50;;;22.50;63.70;;;;;;5084542;28;20746;-59
2021/09/03 09:49:18;;;;;;;7.13;5.93;;;22.50;63.60;;;;;;5114124;28;20173;-59
2021/09/03 09:51:50;;;;;;;6.00;5.40;;;22.50;63.60;;;;;;5113148;28;20181;-59
2021/09/03 09:54:15;;;;;;;5.57;5.18;;;22.50;63.60;;;;;;5114014;28;20628;-59
2021/09/03 09:56:43;;;;;;;6.72;5.40;;;22.50;63.60;;;;;;5113819;28;20180;-59
2021/09/03 09:59:09;;;;;;;6.93;5.47;;;22.60;63.60;;;;;;5113531;28;20173;-59
2021/09/03 10:01:37;;;;;;;6.20;5.38;;;22.60;63.50;;;;;;5113528;28;20174;-58
2021/09/03 10:04:05;;;;;;;6.93;5.03;;;22.60;63.40;;;;;;5114144;28;20169;-59
2021/09/03 10:06:31;;;;;;;6.30;5.63;;;22.60;63.40;;;;;;5112689;28;20201;-59
2021/09/03 10:08:57;;;;;;;5.90;5.32;;;22.60;63.40;;;;;;5112585;28;20173;-60
2021/09/03 10:11:23;;;;;;;5.55;4.93;;;22.60;63.30;;;;;;5113376;28;20673;-59
2021/09/03 10:13:49;;;;;;;5.88;5.35;;;22.70;63.40;;;;;;5113148;28;20173;-59
2021/09/03 10:16:15;;;;;;;5.90;5.30;;;22.70;63.30;;;;;;5112777;28;20658;-59
2021/09/03 10:18:42;;;;;;;6.03;5.40;;;22.70;63.30;;;;;;5113346;28;20181;-60
2021/09/03 10:21:08;;;;;;;6.15;5.60;;;22.70;63.20;;;;;;5103178;28;20233;-60
2021/09/03 10:23:52;;;;;;;6.53;5.15;;;22.70;63.20;;;;;;5093003;28;20170;-59
2021/09/03 10:26:21;;;;;;;5.57;4.90;;;22.80;63.30;;;;;;5093191;28;20235;-59
2021/09/03 10:28:47;;;;;;;5.07;4.68;;;22.80;63.30;;;;;;5092645;28;20624;-59
2021/09/03 10:31:18;;;;;;;5.72;5.13;;;22.80;63.30;;;;;;5093126;28;20185;-59
2021/09/03 10:33:44;;;;;;;5.93;5.32;;;22.80;63.30;;;;;;5091878;28;21044;-59
2021/09/03 10:36:09;;;;;;;5.93;5.32;;;22.80;63.20;;;;;;5092793;28;20272;-60
2021/09/03 10:38:35;;;;;;;5.50;5.00;;;22.80;63.20;;;;;;5091517;28;20269;-59
2021/09/03 10:41:01;;;;;;;5.30;4.80;;;22.80;63.30;;;;;;5092331;28;20173;-60
2021/09/03 10:43:45;;;;;;;6.07;5.47;;;22.80;63.30;;;;;;5092451;28;20632;-59
2021/09/03 10:46:15;;;;;;;5.68;5.15;;;22.90;63.30;;;;;;5092651;28;20213;-60
2021/09/03 10:48:51;;;;;;;5.80;5.30;;;22.90;63.40;;;;;;5090405;28;20178;-59
2021/09/03 10:51:32;;;;;;;5.50;5.00;;;22.90;63.30;;;;;;5093061;28;20162;-60
2021/09/03 10:53:58;;;;;;;5.25;4.75;;;22.90;63.30;;;;;;5092683;28;20174;-60
2021/09/03 10:56:26;;;;;;;5.65;5.00;;;22.90;63.30;;;;;;5091532;28;20184;-63
2021/09/03 10:58:56;;;;;;;6.63;5.25;;;22.90;63.20;;;;;;5092533;28;20174;-67
2021/09/03 11:01:25;;;;;;;5.05;4.55;;;22.90;63.10;;;;;;5092109;28;20253;-63
2021/09/03 11:04:03;;;;;;;5.30;4.70;;;22.90;63.00;;;;;;5092019;28;20178;-62
2021/09/03 11:07:00;;;;;;;5.03;4.53;;;23.00;63.10;;;;;;5092230;28;20213;-62
2021/09/03 11:09:27;;;;;;;6.28;5.18;;;23.00;63.00;;;;;;5088670;28;20197;-61
2021/09/03 11:11:54;;;;;;;8.55;5.63;;;23.00;63.00;;;;;;5092656;28;20231;-61
2021/09/03 11:14:24;;;;;;;5.45;4.85;;;23.00;63.00;;;;;;5092368;28;20173;-62
2021/09/03 11:16:57;;;;;;;7.18;4.70;;;23.00;63.00;;;;;;5091694;28;20182;-62
2021/09/03 11:19:44;;;;;;;5.13;4.63;;;23.00;62.90;;;;;;5091826;28;20502;-61
2021/09/03 11:22:12;;;;;;;6.05;4.78;;;23.10;62.90;;;;;;5110439;28;20187;-62
2021/09/03 11:24:42;;;;;;;8.25;5.05;;;23.10;62.90;;;;;;5111771;28;20626;-62
2021/09/03 11:27:12;;;;;;;5.75;4.65;;;23.10;62.90;;;;;;5113514;28;20215;-62
2021/09/03 11:29:42;;;;;;;6.13;4.50;;;23.20;62.90;;;;;;5119328;27;20259;-62
2021/09/03 11:32:10;;;;;;;6.68;5.75;;;23.20;62.90;;;;;;5119285;27;20176;-62
2021/09/03 11:34:58;;;;;;;10.88;5.38;;;23.20;62.90;;;;;;5119206;27;20173;-61
2021/09/03 11:37:37;;;;;;;7.07;5.20;;;23.20;62.90;;;;;;5118224;27;20542;-61
2021/09/03 11:40:11;;;;;;;5.70;4.90;;;23.20;62.90;;;;;;5119390;27;20173;-61
2021/09/03 11:42:58;;;;;;;5.68;4.65;;;23.20;62.90;;;;;;5118835;27;20259;-62
2021/09/03 11:45:27;;;;;;;7.45;5.43;;;23.20;62.90;;;;;;5118254;27;20200;-60
2021/09/03 11:48:00;;;;;;;6.18;5.57;;;23.20;63.00;;;;;;5119438;28;20206;-62
2021/09/03 11:50:31;;;;;;;7.85;5.35;;;23.20;62.90;;;;;;5118881;27;20250;-61
2021/09/03 11:52:58;;;;;;;6.07;4.80;;;23.20;62.90;;;;;;5118308;28;20180;-61
2021/09/03 11:55:23;;;;;;;6.03;5.40;;;23.20;62.90;;;;;;5119152;27;20234;-61
2021/09/03 11:57:50;;;;;;;6.85;5.75;;;23.20;62.90;;;;;;5118699;28;20184;-61
2021/09/03 12:00:18;;;;;;;6.97;5.75;;;23.30;63.70;;;;;;5119092;27;20196;-62
2021/09/03 12:02:43;;;;;;;7.15;5.25;;;23.30;62.80;;;;;;5118868;27;20510;-62
2021/09/03 12:05:09;;;;;;;6.10;4.68;;;23.30;62.80;;;;;;5116974;28;20176;-62
2021/09/03 12:07:34;;;;;;;6.45;5.40;;;23.30;62.80;;;;;;5117448;28;20218;-62
2021/09/03 12:10:00;;;;;;;5.63;5.13;;;23.30;62.70;;;;;;5119224;28;20173;-61
2021/09/03 12:12:27;;;;;;;6.47;5.00;;;23.30;62.70;;;;;;5117995;28;20249;-62
2021/09/03 12:14:54;;;;;;;7.82;5.10;;;23.30;62.70;;;;;;5119068;27;20180;-62
2021/09/03 12:17:20;;;;;;;5.95;4.80;;;23.40;62.80;;;;;;5118862;27;20177;-61
2021/09/03 12:19:46;;;;;;;5.70;4.80;;;23.40;62.70;;;;;;5118100;28;20324;-62
2021/09/03 12:22:16;;;;;;;7.75;5.25;;;23.40;62.70;;;;;;5100165;28;20258;-62
2021/09/03 12:24:41;;;;;;;5.43;4.90;;;23.40;62.70;;;;;;5098332;28;20278;-61
2021/09/03 12:27:13;;;;;;;7.00;5.00;;;23.40;62.60;;;;;;5097676;28;20699;-61
2021/09/03 12:29:38;;;;;;;7.85;5.18;;;23.40;62.60;;;;;;5098085;28;20524;-62
2021/09/03 12:32:05;;;;;;;5.55;4.95;;;23.50;62.60;;;;;;5098475;28;20184;-62
2021/09/03 12:34:33;;;;;;;5.82;5.25;;;23.50;62.50;;;;;;5097440;28;20182;-63
2021/09/03 12:37:03;;;;;;;6.45;5.13;;;23.60;62.30;;;;;;5098570;28;20174;-63
2021/09/03 12:39:28;;;;;;;5.35;4.85;;;23.60;62.10;;;;;;5095684;28;20629;-62
2021/09/03 12:41:54;;;;;;;6.88;4.93;;;23.60;62.00;;;;;;5094627;28;20196;-61
2021/09/03 12:44:26;;;;;;;5.57;5.07;;;23.70;61.90;;;;;;5095099;28;20170;-61